createdAt,value
2023-02-18T00:01:01.350Z,55.06
2023-02-18T00:03:29.993Z,55.10
2023-02-18T00:05:57.721Z,55.09
2023-02-18T00:08:24.751Z,55.04
2023-02-18T00:10:51.766Z,55.00
2023-02-18T00:13:18.745Z,54.97
2023-02-18T00:15:45.689Z,55.08
2023-02-18T00:18:12.738Z,55.01
2023-02-18T00:20:40.194Z,55.13
2023-02-18T00:23:08.069Z,55.07
2023-02-18T00:25:34.915Z,55.11
2023-02-18T00:28:01.849Z,55.10
2023-02-18T00:30:28.958Z,55.17
2023-02-18T00:32:56.259Z,55.09
2023-02-18T00:35:23.202Z,55.18
2023-02-18T00:37:53.131Z,55.17
2023-02-18T00:40:20.753Z,55.20
2023-02-18T00:42:47.819Z,55.28
2023-02-18T00:45:15.176Z,55.21
2023-02-18T00:47:42.548Z,55.22
2023-02-18T00:50:10.856Z,55.31
2023-02-18T00:52:37.817Z,55.34
2023-02-18T00:55:05.102Z,55.37
2023-02-18T00:57:33.232Z,55.22
2023-02-18T01:00:00.184Z,55.23
2023-02-18T01:02:27.357Z,55.18
2023-02-18T01:04:54.488Z,55.06
2023-02-18T01:07:21.575Z,55.06
2023-02-18T01:09:48.664Z,55.07
2023-02-18T01:12:16.275Z,55.24
2023-02-18T01:14:43.330Z,55.12
2023-02-18T01:17:10.360Z,55.18
2023-02-18T01:19:39.188Z,55.28
2023-02-18T01:22:06.946Z,55.36
2023-02-18T01:24:35.435Z,55.34
2023-02-18T01:27:02.310Z,55.53
2023-02-18T01:29:29.456Z,55.45
2023-02-18T01:31:56.473Z,55.28
2023-02-18T01:34:23.497Z,55.34
2023-02-18T01:36:50.669Z,55.35
2023-02-18T01:39:17.676Z,55.19
2023-02-18T01:41:45.363Z,55.17
2023-02-18T01:44:18.478Z,55.32
2023-02-18T01:46:46.745Z,55.28
2023-02-18T01:49:21.252Z,55.32
2023-02-18T01:51:52.011Z,55.35
2023-02-18T01:54:25.307Z,55.30
2023-02-18T01:57:23.244Z,55.47
2023-02-18T01:59:56.528Z,55.31
2023-02-18T02:02:27.467Z,55.27
2023-02-18T02:04:55.032Z,55.09
2023-02-18T02:07:25.044Z,55.04
2023-02-18T02:09:58.031Z,55.08
2023-02-18T02:12:30.814Z,54.97
2023-02-18T02:14:57.756Z,55.09
2023-02-18T02:17:43.566Z,55.06
2023-02-18T02:20:16.938Z,55.12
2023-02-18T02:23:03.864Z,55.19
2023-02-18T02:25:30.899Z,55.17
2023-02-18T02:28:11.056Z,55.20
2023-02-18T02:31:03.137Z,55.37
2023-02-18T02:34:02.072Z,55.33
2023-02-18T02:36:44.695Z,55.26
2023-02-18T02:39:19.008Z,55.36
2023-02-18T02:41:45.954Z,55.56
2023-02-18T02:44:36.918Z,55.95
2023-02-18T02:47:27.256Z,56.25
2023-02-18T02:50:04.200Z,56.28
2023-02-18T02:52:41.126Z,56.51
2023-02-18T02:55:12.651Z,56.83
2023-02-18T02:57:45.246Z,56.82
2023-02-18T03:00:17.503Z,57.09
2023-02-18T03:03:06.237Z,57.05
2023-02-18T03:06:01.184Z,57.26
2023-02-18T03:08:54.055Z,57.07
2023-02-18T03:11:21.187Z,57.34
2023-02-18T03:14:06.345Z,57.50
2023-02-18T03:16:43.963Z,57.69
2023-02-18T03:19:19.131Z,57.77
2023-02-18T03:21:57.634Z,57.80
2023-02-18T03:24:30.591Z,57.77
2023-02-18T03:27:04.819Z,57.83
2023-02-18T03:29:32.693Z,57.79
2023-02-18T03:32:05.506Z,57.93
2023-02-18T03:34:38.481Z,57.75
2023-02-18T03:37:07.544Z,57.90
2023-02-18T03:39:37.882Z,57.78
2023-02-18T03:42:05.078Z,57.97
2023-02-18T03:44:32.578Z,57.70
2023-02-18T03:46:59.502Z,58.01
2023-02-18T03:49:26.472Z,58.09
2023-02-18T03:51:53.382Z,58.22
2023-02-18T03:54:20.673Z,58.27
2023-02-18T03:56:47.803Z,58.17
2023-02-18T03:59:15.100Z,58.10
2023-02-18T04:01:42.039Z,58.20
2023-02-18T04:04:09.017Z,58.14
2023-02-18T04:06:36.012Z,58.41
2023-02-18T04:09:09.151Z,58.13
2023-02-18T04:11:41.059Z,58.19
2023-02-18T04:14:08.852Z,58.20
2023-02-18T04:16:36.092Z,58.00
2023-02-18T04:19:03.092Z,57.85
2023-02-18T04:21:30.146Z,58.16
2023-02-18T04:23:57.094Z,58.27
2023-02-18T04:26:24.446Z,58.50
2023-02-18T04:28:51.570Z,58.70
2023-02-18T04:31:18.661Z,58.68
2023-02-18T04:33:46.691Z,58.72
2023-02-18T04:36:13.861Z,58.78
2023-02-18T04:38:42.194Z,58.62
2023-02-18T04:41:09.586Z,58.79
2023-02-18T04:43:36.680Z,58.60
2023-02-18T04:46:03.663Z,58.74
2023-02-18T04:48:30.809Z,58.59
2023-02-18T04:50:57.637Z,58.57
2023-02-18T04:53:24.519Z,58.60
2023-02-18T04:55:52.859Z,58.85
2023-02-18T04:58:20.448Z,59.02
2023-02-18T05:00:47.951Z,59.15
2023-02-18T05:03:15.123Z,59.06
2023-02-18T05:05:46.051Z,59.00
2023-02-18T05:08:13.121Z,58.94
2023-02-18T05:10:40.065Z,58.96
2023-02-18T05:13:07.052Z,58.90
2023-02-18T05:15:34.034Z,58.81
2023-02-18T05:18:01.053Z,58.81
2023-02-18T05:20:28.508Z,58.74
2023-02-18T05:22:55.387Z,58.75
2023-02-18T05:25:22.512Z,58.69
2023-02-18T05:27:49.613Z,59.06
2023-02-18T05:30:16.568Z,59.17
2023-02-18T05:32:43.632Z,59.30
2023-02-18T05:35:10.958Z,59.32
2023-02-18T05:37:37.969Z,59.28
2023-02-18T05:40:06.616Z,59.15
2023-02-18T05:42:33.531Z,58.98
2023-02-18T05:45:01.059Z,59.14
2023-02-18T05:47:28.144Z,59.09
2023-02-18T05:49:56.193Z,58.98
2023-02-18T05:52:23.337Z,58.94
2023-02-18T05:54:50.379Z,58.95
2023-02-18T05:57:17.381Z,59.01
2023-02-18T05:59:44.347Z,59.12
2023-02-18T06:02:11.308Z,59.44
2023-02-18T06:04:38.362Z,59.44
2023-02-18T06:07:05.219Z,59.59
2023-02-18T06:09:32.205Z,59.60
2023-02-18T06:11:59.150Z,59.35
2023-02-18T06:14:26.062Z,59.37
2023-02-18T06:16:53.083Z,59.26
2023-02-18T06:19:20.373Z,59.11
2023-02-18T06:21:47.318Z,59.21
2023-02-18T06:24:14.267Z,59.00
2023-02-18T06:26:42.232Z,59.03
2023-02-18T06:29:09.165Z,58.95
2023-02-18T06:31:36.279Z,59.10
2023-02-18T06:34:03.214Z,59.20
2023-02-18T06:36:30.107Z,59.41
2023-02-18T06:38:57.738Z,59.32
2023-02-18T06:41:25.407Z,59.20
2023-02-18T06:43:52.289Z,59.09
2023-02-18T06:46:19.303Z,59.07
2023-02-18T06:48:46.404Z,59.21
2023-02-18T06:51:13.825Z,58.98
2023-02-18T06:53:40.664Z,59.05
2023-02-18T06:56:07.866Z,59.08
2023-02-18T06:58:35.032Z,59.23
2023-02-18T07:01:01.928Z,59.51
2023-02-18T07:03:28.932Z,59.71
2023-02-18T07:05:55.890Z,59.83
2023-02-18T07:08:22.861Z,60.02
2023-02-18T07:10:49.949Z,60.17
2023-02-18T07:13:17.272Z,59.55
2023-02-18T07:15:44.192Z,59.30
2023-02-18T07:18:11.469Z,59.35
2023-02-18T07:20:38.921Z,58.78
2023-02-18T07:23:08.173Z,58.50
2023-02-18T07:25:35.066Z,58.39
2023-02-18T07:28:02.013Z,58.19
2023-02-18T07:30:29.021Z,58.05
2023-02-18T07:32:56.105Z,58.04
2023-02-18T07:35:23.047Z,58.11
2023-02-18T07:37:50.608Z,57.95
2023-02-18T07:40:21.240Z,57.90
2023-02-18T07:42:49.208Z,57.97
2023-02-18T07:45:16.475Z,57.87
2023-02-18T07:47:45.622Z,57.89
2023-02-18T07:50:13.038Z,57.80
2023-02-18T07:52:40.366Z,57.89
2023-02-18T07:55:07.924Z,57.74
2023-02-18T07:57:54.803Z,57.72
2023-02-18T08:00:21.988Z,57.78
2023-02-18T08:02:48.934Z,57.68
2023-02-18T08:05:15.788Z,57.77
2023-02-18T08:07:43.238Z,57.62
2023-02-18T08:10:10.381Z,57.70
2023-02-18T08:12:37.457Z,57.68
2023-02-18T08:15:05.437Z,57.47
2023-02-18T08:17:32.554Z,57.47
2023-02-18T08:19:59.501Z,57.52
2023-02-18T08:22:26.445Z,57.54
2023-02-18T08:24:56.819Z,57.39
2023-02-18T08:27:24.355Z,57.52
2023-02-18T08:29:51.584Z,57.47
2023-02-18T08:32:18.627Z,57.49
2023-02-18T08:34:45.781Z,57.43
2023-02-18T08:37:12.821Z,57.50
2023-02-18T08:39:40.329Z,57.48
2023-02-18T08:42:07.740Z,57.46
2023-02-18T08:44:35.195Z,57.38
2023-02-18T08:47:02.136Z,57.36
2023-02-18T08:49:29.398Z,57.44
2023-02-18T08:51:56.846Z,57.44
2023-02-18T08:54:24.309Z,57.30
2023-02-18T08:56:57.914Z,57.34
2023-02-18T08:59:25.563Z,57.30
2023-02-18T09:01:53.033Z,57.44
2023-02-18T09:04:21.438Z,57.27
2023-02-18T09:06:50.232Z,57.27
2023-02-18T09:09:18.261Z,57.35
2023-02-18T09:11:46.021Z,57.24
2023-02-18T09:14:14.559Z,57.31
2023-02-18T09:16:42.376Z,57.25
2023-02-18T09:19:09.519Z,57.10
2023-02-18T09:21:38.001Z,57.15
2023-02-18T09:24:05.562Z,57.23
2023-02-18T09:26:33.156Z,57.22
2023-02-18T09:29:00.066Z,57.07
2023-02-18T09:31:28.644Z,57.13
2023-02-18T09:34:01.533Z,57.05
2023-02-18T09:36:29.405Z,56.96
2023-02-18T09:38:56.477Z,57.08
2023-02-18T09:41:30.556Z,57.01
2023-02-18T09:44:01.491Z,57.08
2023-02-18T09:46:28.481Z,56.92
2023-02-18T09:48:57.062Z,57.06
2023-02-18T09:51:24.091Z,57.01
2023-02-18T09:53:51.193Z,57.10
2023-02-18T09:56:28.513Z,56.87
2023-02-18T09:58:58.744Z,56.78
2023-02-18T10:01:35.872Z,56.77
2023-02-18T10:04:10.745Z,56.64
2023-02-18T10:06:38.203Z,56.71
2023-02-18T10:09:15.697Z,56.71
2023-02-18T10:11:46.409Z,56.66
2023-02-18T10:14:15.543Z,56.68
2023-02-18T10:16:45.333Z,56.64
2023-02-18T10:19:31.962Z,56.52
2023-02-18T10:22:01.408Z,56.34
2023-02-18T10:24:33.732Z,56.33
2023-02-18T10:27:04.070Z,56.22
2023-02-18T10:29:32.455Z,56.14
2023-02-18T10:32:05.472Z,56.20
2023-02-18T10:35:01.643Z,56.12
2023-02-18T10:38:03.296Z,56.02
2023-02-18T10:40:35.793Z,56.11
2023-02-18T10:43:30.568Z,56.11
2023-02-18T10:46:25.529Z,56.08
2023-02-18T10:49:20.598Z,56.10
2023-02-18T10:51:55.189Z,56.16
2023-02-18T10:54:27.258Z,56.24
2023-02-18T10:57:00.579Z,56.28
2023-02-18T10:59:33.676Z,56.22
2023-02-18T11:02:05.997Z,56.41
2023-02-18T11:04:39.991Z,56.29
2023-02-18T11:07:17.007Z,56.16
2023-02-18T11:09:50.408Z,56.35
2023-02-18T11:12:29.405Z,56.22
2023-02-18T11:15:14.309Z,55.99
2023-02-18T11:17:47.738Z,55.99
2023-02-18T11:20:22.918Z,55.94
2023-02-18T11:22:50.975Z,56.04
2023-02-18T11:25:26.884Z,56.20
2023-02-18T11:27:58.069Z,56.01
2023-02-18T11:30:33.514Z,56.10
2023-02-18T11:33:16.012Z,56.11
2023-02-18T11:35:50.517Z,56.13
2023-02-18T11:38:25.914Z,56.06
2023-02-18T11:41:01.971Z,56.01
2023-02-18T11:43:31.648Z,56.00
2023-02-18T11:46:23.116Z,55.96
2023-02-18T11:48:51.410Z,55.93
2023-02-18T11:51:23.726Z,55.81
2023-02-18T11:54:00.585Z,55.99
2023-02-18T11:56:32.627Z,56.09
2023-02-18T11:59:01.541Z,55.83
2023-02-18T12:01:38.162Z,55.88
2023-02-18T12:04:31.728Z,55.70
2023-02-18T12:07:24.799Z,55.55
2023-02-18T12:09:56.681Z,55.37
2023-02-18T12:12:31.209Z,55.56
2023-02-18T12:15:01.786Z,55.59
2023-02-18T12:17:48.495Z,55.39
2023-02-18T12:20:45.009Z,55.29
2023-02-18T12:23:30.642Z,55.45
2023-02-18T12:26:00.704Z,55.49
2023-02-18T12:28:45.904Z,55.49
2023-02-18T12:31:25.231Z,55.24
2023-02-18T12:34:04.761Z,55.29
2023-02-18T12:37:04.175Z,55.36
2023-02-18T12:39:59.050Z,55.29
2023-02-18T12:42:30.873Z,55.35
2023-02-18T12:45:13.634Z,55.10
2023-02-18T12:47:55.773Z,54.95
2023-02-18T12:50:22.751Z,55.07
2023-02-18T12:53:07.573Z,54.94
2023-02-18T12:55:45.730Z,55.17
2023-02-18T12:58:38.887Z,55.02
2023-02-18T13:01:11.945Z,55.15
2023-02-18T13:03:58.590Z,54.90
2023-02-18T13:06:38.785Z,54.97
2023-02-18T13:09:20.318Z,55.28
2023-02-18T13:12:10.361Z,55.17
2023-02-18T13:14:50.185Z,54.96
2023-02-18T13:17:19.830Z,55.13
2023-02-18T13:20:14.251Z,55.10
2023-02-18T13:22:41.774Z,55.14
2023-02-18T13:25:13.847Z,55.10
2023-02-18T13:27:55.141Z,55.08
2023-02-18T13:30:32.586Z,55.16
2023-02-18T13:33:08.643Z,55.12
2023-02-18T13:35:54.332Z,55.37
2023-02-18T13:38:34.865Z,55.34
2023-02-18T13:41:02.829Z,55.43
2023-02-18T13:43:29.889Z,55.46
2023-02-18T13:46:09.659Z,55.50
2023-02-18T13:48:59.783Z,55.47
2023-02-18T13:51:48.922Z,55.55
2023-02-18T13:54:26.468Z,55.55
2023-02-18T13:56:55.118Z,55.58
2023-02-18T13:59:45.804Z,55.49
2023-02-18T14:02:25.502Z,55.73
2023-02-18T14:04:58.518Z,55.58
2023-02-18T14:07:25.460Z,55.52
2023-02-18T14:10:04.078Z,55.63
2023-02-18T14:12:31.225Z,55.42
2023-02-18T14:14:58.963Z,55.57
2023-02-18T14:17:32.194Z,55.63
2023-02-18T14:20:02.384Z,55.49
2023-02-18T14:22:34.823Z,55.63
2023-02-18T14:25:04.691Z,55.61
2023-02-18T14:27:31.791Z,55.59
2023-02-18T14:30:07.453Z,55.58
2023-02-18T14:32:35.034Z,55.37
2023-02-18T14:35:13.378Z,55.33
2023-02-18T14:38:02.986Z,55.45
2023-02-18T14:40:58.904Z,55.36
2023-02-18T14:43:32.265Z,55.32
2023-02-18T14:46:04.763Z,55.47
2023-02-18T14:48:57.717Z,55.28
2023-02-18T14:51:27.302Z,55.39
2023-02-18T14:53:54.325Z,55.58
2023-02-18T14:56:23.085Z,55.49
2023-02-18T14:58:58.216Z,55.35
2023-02-18T15:01:28.874Z,55.29
2023-02-18T15:03:56.687Z,55.34
2023-02-18T15:06:24.986Z,55.37
2023-02-18T15:08:51.988Z,55.36
2023-02-18T15:11:21.225Z,55.22
2023-02-18T15:13:48.277Z,55.13
2023-02-18T15:16:34.694Z,55.22
2023-02-18T15:19:08.163Z,55.22
2023-02-18T15:21:43.334Z,55.11
2023-02-18T15:24:20.560Z,55.24
2023-02-18T15:26:52.136Z,55.21
2023-02-18T15:29:24.628Z,55.27
2023-02-18T15:31:52.018Z,55.42
2023-02-18T15:34:31.446Z,55.22
2023-02-18T15:37:00.874Z,55.22
2023-02-18T15:39:28.987Z,55.19
2023-02-18T15:42:00.743Z,55.26
2023-02-18T15:44:32.587Z,55.26
2023-02-18T15:47:02.111Z,55.20
2023-02-18T15:49:30.758Z,55.24
2023-02-18T15:52:00.651Z,55.15
2023-02-18T15:54:28.105Z,55.04
2023-02-18T15:56:56.729Z,55.39
2023-02-18T15:59:35.285Z,55.12
2023-02-18T16:02:08.441Z,55.11
2023-02-18T16:04:39.693Z,55.09
2023-02-18T16:07:21.775Z,54.99
2023-02-18T16:09:48.819Z,55.30
2023-02-18T16:12:31.794Z,55.09
2023-02-18T16:14:59.706Z,55.15
2023-02-18T16:17:30.254Z,54.93
2023-02-18T16:20:14.629Z,54.85
2023-02-18T16:22:47.679Z,54.73
2023-02-18T16:25:15.183Z,54.87
2023-02-18T16:27:57.668Z,54.99
2023-02-18T16:30:27.664Z,54.66
2023-02-18T16:32:56.304Z,54.82
2023-02-18T16:35:25.814Z,54.81
2023-02-18T16:37:54.296Z,54.97
2023-02-18T16:40:39.746Z,55.04
2023-02-18T16:43:17.460Z,54.90
2023-02-18T16:45:50.663Z,55.05
2023-02-18T16:48:37.333Z,55.01
2023-02-18T16:51:26.191Z,54.94
2023-02-18T16:53:53.788Z,55.09
2023-02-18T16:56:32.654Z,54.96
2023-02-18T16:59:00.433Z,55.05
2023-02-18T17:01:31.047Z,55.20
2023-02-18T17:04:02.772Z,55.14
2023-02-18T17:06:31.241Z,54.93
2023-02-18T17:08:59.079Z,55.11
2023-02-18T17:11:30.438Z,55.05
2023-02-18T17:13:59.594Z,55.08
2023-02-18T17:16:30.119Z,54.96
2023-02-18T17:18:57.399Z,54.69
2023-02-18T17:21:26.126Z,54.72
2023-02-18T17:23:53.194Z,54.81
2023-02-18T17:26:22.225Z,54.83
2023-02-18T17:28:49.196Z,54.65
2023-02-18T17:31:20.501Z,54.74
2023-02-18T17:33:47.807Z,54.69
2023-02-18T17:36:15.124Z,54.91
2023-02-18T17:38:42.277Z,54.87
2023-02-18T17:41:12.709Z,54.79
2023-02-18T17:43:40.976Z,54.83
2023-02-18T17:46:17.496Z,54.72
2023-02-18T17:48:46.335Z,54.85
2023-02-18T17:51:26.612Z,54.68
2023-02-18T17:53:54.070Z,54.78
2023-02-18T17:56:21.456Z,54.77
2023-02-18T17:58:49.367Z,54.65
2023-02-18T18:01:17.388Z,54.76
2023-02-18T18:03:44.896Z,54.84
2023-02-18T18:06:17.522Z,54.94
2023-02-18T18:08:45.041Z,54.86
2023-02-18T18:11:19.320Z,54.68
2023-02-18T18:13:46.788Z,54.77
2023-02-18T18:16:15.876Z,54.62
2023-02-18T18:18:43.312Z,54.72
2023-02-18T18:21:31.980Z,54.81
2023-02-18T18:23:59.241Z,54.82
2023-02-18T18:26:26.632Z,54.69
2023-02-18T18:28:54.328Z,54.86
2023-02-18T18:31:21.929Z,54.64
2023-02-18T18:33:53.206Z,54.65
2023-02-18T18:36:22.333Z,54.59
2023-02-18T18:38:49.645Z,54.68
2023-02-18T18:41:20.203Z,54.69
2023-02-18T18:43:47.336Z,54.50
2023-02-18T18:46:14.326Z,54.68
2023-02-18T18:48:41.960Z,54.50
2023-02-18T18:51:19.831Z,54.63
2023-02-18T18:53:47.590Z,54.60
2023-02-18T18:56:14.752Z,54.68
2023-02-18T18:58:42.000Z,54.64
2023-02-18T19:01:16.349Z,54.41
2023-02-18T19:03:44.290Z,54.47
2023-02-18T19:06:12.105Z,54.58
2023-02-18T19:08:39.684Z,54.47
2023-02-18T19:11:07.087Z,54.52
2023-02-18T19:13:36.224Z,54.32
2023-02-18T19:16:20.317Z,54.17
2023-02-18T19:18:48.235Z,54.37
2023-02-18T19:21:16.907Z,54.29
2023-02-18T19:23:44.171Z,54.59
2023-02-18T19:26:13.012Z,54.54
2023-02-18T19:28:39.937Z,54.50
2023-02-18T19:31:11.390Z,54.49
2023-02-18T19:33:39.549Z,54.59
2023-02-18T19:36:12.197Z,54.50
2023-02-18T19:38:39.596Z,54.45
2023-02-18T19:41:19.673Z,54.50
2023-02-18T19:43:49.462Z,54.78
2023-02-18T19:46:19.227Z,54.96
2023-02-18T19:48:51.255Z,54.89
2023-02-18T19:51:19.679Z,55.03
2023-02-18T19:53:46.705Z,54.99
2023-02-18T19:56:13.813Z,54.97
2023-02-18T19:58:41.509Z,55.01
2023-02-18T20:01:17.098Z,54.96
2023-02-18T20:03:44.621Z,55.10
2023-02-18T20:06:19.850Z,55.15
2023-02-18T20:08:47.904Z,55.24
2023-02-18T20:11:15.568Z,55.13
2023-02-18T20:13:42.592Z,55.09
2023-02-18T20:16:10.906Z,55.11
2023-02-18T20:18:37.869Z,55.19
2023-02-18T20:21:05.356Z,55.30
2023-02-18T20:23:32.454Z,55.37
2023-02-18T20:26:03.470Z,55.42
2023-02-18T20:28:30.781Z,55.32
2023-02-18T20:31:12.052Z,55.27
2023-02-18T20:33:42.954Z,55.46
2023-02-18T20:36:13.322Z,55.38
2023-02-18T20:38:40.947Z,55.45
2023-02-18T20:41:15.007Z,55.33
2023-02-18T20:43:42.922Z,55.60
2023-02-18T20:46:13.408Z,55.63
2023-02-18T20:48:41.348Z,55.71
2023-02-18T20:51:12.698Z,55.60
2023-02-18T20:53:42.146Z,55.61
2023-02-18T20:56:10.307Z,55.96
2023-02-18T20:58:37.423Z,56.14
2023-02-18T21:01:07.458Z,56.54
2023-02-18T21:03:35.532Z,56.83
2023-02-18T21:06:08.411Z,57.20
2023-02-18T21:08:40.288Z,57.49
2023-02-18T21:11:10.580Z,57.59
2023-02-18T21:13:38.125Z,57.84
2023-02-18T21:16:06.764Z,57.88
2023-02-18T21:18:34.149Z,58.01
2023-02-18T21:21:04.460Z,58.15
2023-02-18T21:23:31.539Z,58.19
2023-02-18T21:26:13.999Z,58.18
2023-02-18T21:28:41.152Z,58.29
2023-02-18T21:31:20.562Z,58.26
2023-02-18T21:33:47.745Z,58.42
2023-02-18T21:36:15.225Z,58.39
2023-02-18T21:38:44.785Z,58.49
2023-02-18T21:41:12.899Z,58.55
2023-02-18T21:43:40.076Z,58.75
2023-02-18T21:46:14.856Z,58.83
2023-02-18T21:49:00.601Z,58.82
2023-02-18T21:51:57.871Z,58.94
2023-02-18T21:54:39.929Z,58.98
2023-02-18T21:57:14.267Z,59.14
2023-02-18T21:59:41.372Z,59.12
2023-02-18T22:02:18.858Z,59.21
2023-02-18T22:04:48.289Z,59.23
2023-02-18T22:07:16.545Z,59.16
2023-02-18T22:09:44.304Z,59.34
2023-02-18T22:12:12.046Z,59.33
2023-02-18T22:14:39.933Z,59.36
2023-02-18T22:17:07.099Z,59.35
2023-02-18T22:19:35.073Z,59.25
2023-02-18T22:22:05.324Z,59.39
2023-02-18T22:24:33.111Z,59.29
2023-02-18T22:27:03.347Z,59.26
2023-02-18T22:29:31.846Z,59.29
2023-02-18T22:31:58.971Z,59.18
2023-02-18T22:34:26.141Z,59.37
2023-02-18T22:36:53.080Z,59.28
2023-02-18T22:39:20.520Z,59.20
2023-02-18T22:41:47.788Z,59.19
2023-02-18T22:44:17.618Z,59.34
2023-02-18T22:46:44.975Z,59.43
2023-02-18T22:49:12.794Z,59.46
2023-02-18T22:51:41.969Z,59.51
2023-02-18T22:54:14.951Z,59.57
2023-02-18T22:56:42.488Z,59.59
2023-02-18T22:59:11.229Z,59.61
2023-02-18T23:01:41.962Z,59.62
2023-02-18T23:04:14.939Z,59.60
2023-02-18T23:06:43.883Z,59.61
2023-02-18T23:09:20.228Z,59.65
2023-02-18T23:11:52.200Z,59.66
2023-02-18T23:14:19.971Z,59.54
2023-02-18T23:17:16.700Z,59.54
2023-02-18T23:19:48.201Z,59.51
2023-02-18T23:22:18.700Z,59.53
2023-02-18T23:24:46.722Z,59.64
2023-02-18T23:27:16.450Z,59.62
2023-02-18T23:29:43.514Z,59.59
2023-02-18T23:32:10.441Z,59.36
2023-02-18T23:34:38.709Z,59.44
2023-02-18T23:37:06.294Z,59.51
2023-02-18T23:39:34.376Z,59.45
2023-02-18T23:42:01.311Z,59.55
2023-02-18T23:44:28.467Z,59.45
2023-02-18T23:46:55.990Z,59.51
2023-02-18T23:49:25.635Z,59.55
2023-02-18T23:51:55.498Z,59.50
2023-02-18T23:54:22.842Z,59.39
2023-02-18T23:56:49.704Z,59.53
2023-02-18T23:59:17.097Z,59.54
